KHYS/HYS METAR and TAF weather

Enter ICAO airport designator
Station Type Date Time Source
KHYS METAR 2021/04/14 18:56 UTC NOAA

KHYS 141856Z AUTO 06010G16KT 10SM CLR 11/M04 A3027 RMK AO2 SLP258 T01061039


Station Type Date Time Source
KHYS Decoded METAR 2021/04/14 18:56 UTC NOAA

Hays, Hays Regional Airport, KS, United States (KHYS) 38-51N 099-16W
Apr 14, 2021 - 02:56 PM EDT / 2021.04.14 1856 UTC
Wind: from the ENE (060 degrees) at 12 MPH (10 KT) gusting to 18 MPH (16 KT):0
Visibility: 10 mile(s):0
Sky conditions: clear
Temperature: 51.1 F (10.6 C)
Dew Point: 25.0 F (-3.9 C)
Relative Humidity: 35%
Pressure (altimeter): 30.27 in. Hg (1025 hPa)
ob: KHYS 141856Z AUTO 06010G16KT 10SM CLR 11/M04 A3027 RMK AO2 SLP258 T01061039
cycle: 19

Station Type Date Time Source
KHYS TAF 2021/04/14 20:33 UTC NOAA

TAF
AMD KHYS 141931Z 1420/1518 05013KT P6SM BKN150
FM150000 03007KT P6SM BKN040

Example: see airport list